Extended Streamflow Prediction
Issued by NWS Lower Mississippi RFC

Home | Current Version | Previous Version | Text Only | Print | Product List | Glossary On
Versions: 1 2 3 4 5 6 7 8 9 10 11 12 13 14 15 16 17 18 19 20 21 22 23 24 25 26
000
FGUS64 KORN 241729
ESPORN
EXTENDED STREAMFLOW PREDICTION
NATIONAL WEATHER SERVICE RIVER FORECAST CENTER, SLIDELL, LA
1230 PM CDT WED 24 2014

   DATE   CPGM7 CIRI2 NMDM7 TPTT1 CRTM7 OSGA4 MEMT1 TRPM6 HEEA4
09-25-14   23.3  21.4  11.4  14.3  13.9   6.8   7.5  18.3  15.0
09-26-14   22.7  20.8  10.9  13.8  13.6   6.6   7.0  17.5  13.9
09-27-14   21.9  20.2  10.5  13.4  13.2   6.1   6.8  17.3  13.4
09-28-14   21.0  19.7  10.0  13.0  12.8   5.6   6.3  16.9  13.2
09-29-14   19.8  19.1   9.5  12.5  12.4   5.2   5.8  16.4  12.8
09-30-14   18.6  18.5   9.1  12.1  11.9   4.7   5.4  16.0  12.4
10-01-14   17.6  17.9   8.6  11.7  11.6   4.2   5.0  15.6  12.0
10-02-14   16.7  17.2   8.1  11.2  11.1   3.7   4.5  15.1  11.6
10-03-14   15.8  16.6   7.5  10.7  10.6   3.2   4.0  14.7  11.2
10-04-14   15.2  16.0   7.1  10.2  10.1   2.7   3.5  14.3  10.7
10-05-14   14.7  15.6   6.6   9.7   9.7   2.2   3.0  13.7  10.3
10-06-14   14.3  15.3   6.4   9.4   9.3   1.7   2.6  13.3   9.8
10-07-14   13.9  15.0   6.1   9.2   9.1   1.3   2.1  12.9   9.4
10-08-14   13.5  14.7   5.9   9.0   8.9   1.0   1.9  12.6   9.0
10-09-14   13.2  14.4   5.7   8.8   8.6   0.8   1.6  12.3   8.8
10-10-14   12.7  14.1   5.4   8.5   8.4   0.6   1.3  12.0   8.6
10-11-14   12.2  13.8   5.2   8.3   8.2   0.3   1.1  11.9   8.3
10-12-14   11.7  13.6   5.0   8.1   8.0   0.0   0.9  11.6   8.1
10-13-14   11.5  13.3   4.8   7.9   7.8  -0.1   0.7  11.4   7.9
10-14-14   11.2  13.0   4.6   7.6   7.6  -0.3   0.5  11.2   7.7
10-15-14   10.7  12.7   4.3   7.4   7.4  -0.6   0.2  11.0   7.5
10-16-14   10.0  12.6   4.1   7.2   7.2  -0.8   0.0  10.8   7.3
10-17-14    9.7  12.5   4.0   7.1   7.0  -1.1  -0.2  10.6   7.2
10-18-14    9.5  12.3   3.9   7.0   6.9  -1.2  -0.4  10.3   6.9
10-19-14    9.4  12.2   3.8   6.9   6.8  -1.4  -0.5  10.2   6.8
10-20-14    9.2  12.1   3.7   6.8   6.7  -1.4  -0.6  10.0   6.7
10-21-14    9.1  12.0   3.6   6.7   6.6  -1.5  -0.7  10.0   6.6
10-22-14    9.4  12.0   3.5   6.6   6.5  -1.6  -0.8   9.9   6.5

   DATE   ARSA4 GEEM6 VCKM6 NTZM6 RRLL1 BTRL1 DONL1 RRVL1 NORL1
09-25-14   13.6  25.2  21.1  28.4  30.6  15.3   9.1   7.0   5.1
09-26-14   12.2  24.0  20.3  27.8  30.3  15.3   9.2   7.1   5.1
09-27-14   11.2  22.6  19.1  27.1  29.8  14.9   9.2   7.1   5.1
09-28-14   10.7  21.9  17.8  25.9  29.1  14.3   8.9   6.9   5.1
09-29-14   10.6  21.9  17.2  24.7  28.0  13.5   8.3   6.6   5.1
09-30-14   10.2  21.4  17.1  24.1  26.8  12.3   7.7   6.2   4.9
10-01-14    9.7  21.1  16.7  24.0  26.2  11.5   6.8   5.6   4.5
10-02-14    9.4  20.7  16.4  23.6  26.2  11.1   6.4   5.2   4.3
10-03-14    9.0  20.3  16.0  23.3  25.8  11.0   6.3   5.1   3.9
10-04-14    8.6  19.9  15.6  22.9  25.5  10.7   6.1   5.0   3.8
10-05-14    8.2  19.6  15.3  22.5  25.1  10.3   5.9   4.8   3.5
10-06-14    7.7  19.2  14.9  22.2  24.8  10.0   5.6   4.7   3.7
10-07-14    7.3  18.8  14.6  21.9  24.5   9.7   5.4   4.5   3.6
10-08-14    7.0  18.4  14.1  21.6  24.1   9.5   5.2   4.4   3.5
10-09-14    6.6  18.0  13.8  21.1  23.9   9.1   5.0   4.3   3.4
10-10-14    6.4  17.8  13.4  20.8  23.4   8.8   4.9   4.1   3.3
10-11-14    6.2  17.5  13.2  20.4  23.2   8.5   4.5   3.9   3.3
10-12-14    5.9  17.3  12.9  20.2  22.7   8.1   4.4   3.8   3.2
10-13-14    5.8  17.2  12.7  19.9  22.5   7.8   4.1   3.6   3.2
10-14-14    5.5  16.9  12.6  19.8  22.3   7.7   4.0   3.4   3.1
10-15-14    5.3  16.7  12.3  19.7  22.1   7.4   3.8   3.4   3.1
10-16-14    5.2  16.6  12.1  19.4  22.1   7.4   3.7   3.2   3.0
10-17-14    5.1  16.5  12.0  19.2  21.8   7.3   3.7   3.2   3.0
10-18-14    4.9  16.3  11.9  19.1  21.6   7.0   3.5   3.1   3.0
10-19-14    4.6  16.1  11.7  19.0  21.5   6.8   3.4   3.1   3.0
10-20-14    4.5  15.9  11.5  18.7  21.4   6.8   3.3   3.0   3.0
10-21-14    4.4  15.8  11.4  18.6  21.2   6.6   3.3   2.9   3.0
10-22-14    4.3  15.6  11.2  18.4  21.0   6.5   3.1   2.9   3.0

NOTE: STAGE FORECASTS ARE BASED ON FUTURE RAINFALL COVERING
THE NEXT 24 HOURS.

END ORN


$$





USA.gov is the U.S. government's official web portal to all federal, state and local government web resources and services.